South Point, Hawaii
Current Conditions -  °F | °C
As of 4:56 PM on Tuesday 21 Oct 2014 (Local Time) from PHSF Reporting Station
Clear Clear  
Wind Chill: 66°   Ceiling: Unl
Heat Index: 66°   Visibility: 10mi
Dew Point: 52°   Wind: 8mph
Humidity: 59%   Direction: 140°SE
Pressure: 30.31"   Gusts: 16mph
Location:  19°N, 155.67°W
Report Text: PHSF 220256Z AUTO 14007G14KT 10SM CLR 19/11 A3031 RMK AO2 SLP150 T01900109 53003 $
Loading
Personal Weather Stations






























Interactive Weather Map
Tropical Storm Tracking
New forecast layout! Learn more

10-Day Weather Forecast

Advertisements
Track Severe Weather on mobile